createdAt,value
2019-01-14T00:02:50.624Z,4.80
2019-01-14T00:07:56.500Z,4.70
2019-01-14T00:13:01.884Z,4.50
2019-01-14T00:18:07.639Z,4.50
2019-01-14T00:23:15.624Z,4.50
2019-01-14T00:28:20.622Z,4.50
2019-01-14T00:33:25.621Z,4.40
2019-01-14T00:38:31.827Z,4.30
2019-01-14T00:43:36.950Z,4.40
2019-01-14T00:48:41.970Z,4.30
2019-01-14T00:53:46.990Z,4.30
2019-01-14T00:58:52.080Z,4.30
2019-01-14T01:03:57.145Z,4.30
2019-01-14T01:09:02.156Z,4.30
2019-01-14T01:14:07.178Z,4.30
2019-01-14T01:19:12.173Z,4.30
2019-01-14T01:24:17.251Z,4.30
2019-01-14T01:29:22.321Z,4.40
2019-01-14T01:34:27.402Z,4.40
2019-01-14T01:39:32.420Z,4.40
2019-01-14T01:44:37.440Z,4.30
2019-01-14T01:49:42.453Z,4.30
2019-01-14T01:54:47.561Z,4.30
2019-01-14T01:59:52.895Z,4.40
2019-01-14T02:04:57.917Z,4.50
2019-01-14T02:10:02.920Z,4.70
2019-01-14T02:15:09.239Z,4.70
2019-01-14T02:20:15.989Z,4.80
2019-01-14T02:25:21.034Z,4.80
2019-01-14T02:30:26.079Z,4.70
2019-01-14T02:35:31.123Z,4.80
2019-01-14T02:40:36.217Z,4.90
2019-01-14T02:45:41.256Z,5.00
2019-01-14T02:50:46.280Z,4.90
2019-01-14T02:55:51.357Z,4.90
2019-01-14T03:00:56.483Z,5.00
2019-01-14T03:06:03.006Z,5.00
2019-01-14T03:11:07.986Z,5.00
2019-01-14T03:16:13.114Z,4.90
2019-01-14T03:21:18.157Z,4.70
2019-01-14T03:26:23.166Z,4.60
2019-01-14T03:31:28.180Z,4.50
2019-01-14T03:36:33.189Z,4.40
2019-01-14T03:41:38.233Z,4.30
2019-01-14T03:46:43.241Z,4.40
2019-01-14T03:51:48.532Z,4.40
2019-01-14T03:56:53.740Z,4.40
2019-01-14T04:01:58.739Z,4.40
2019-01-14T04:07:03.761Z,4.40
2019-01-14T04:12:08.769Z,4.40
2019-01-14T04:17:13.847Z,4.40
2019-01-14T04:22:18.837Z,4.30
2019-01-14T04:27:24.215Z,4.20
2019-01-14T04:32:29.234Z,4.10
2019-01-14T04:37:34.277Z,4.00
2019-01-14T04:42:39.381Z,4.00
2019-01-14T04:47:44.488Z,4.20
2019-01-14T04:52:49.487Z,4.40
2019-01-14T04:57:54.533Z,4.70
2019-01-14T05:02:59.538Z,4.60
2019-01-14T05:08:04.638Z,4.50
2019-01-14T05:13:09.628Z,4.20
2019-01-14T05:18:14.703Z,3.90
2019-01-14T05:23:19.857Z,3.80
2019-01-14T05:28:24.997Z,3.90
2019-01-14T05:33:30.062Z,4.00
2019-01-14T05:38:37.111Z,4.00
2019-01-14T05:43:41.821Z,4.00
2019-01-14T05:48:46.862Z,4.10
2019-01-14T05:53:51.865Z,4.10
2019-01-14T05:58:56.886Z,4.00
2019-01-14T06:04:01.920Z,3.80
2019-01-14T06:09:08.512Z,3.50
2019-01-14T06:14:13.530Z,3.20
2019-01-14T06:19:18.544Z,3.10
2019-01-14T06:24:23.610Z,3.10
2019-01-14T06:29:28.620Z,3.20
2019-01-14T06:34:33.642Z,3.40
2019-01-14T06:39:38.827Z,3.40
2019-01-14T06:44:43.856Z,3.10
2019-01-14T06:49:48.849Z,3.00
2019-01-14T06:54:53.871Z,2.90
2019-01-14T06:59:58.942Z,2.90
2019-01-14T07:05:04.896Z,2.90
2019-01-14T07:10:12.708Z,3.00
2019-01-14T07:15:17.731Z,3.00
2019-01-14T07:20:23.469Z,3.00
2019-01-14T07:25:28.553Z,2.90
2019-01-14T07:30:42.679Z,2.90
2019-01-14T07:35:47.743Z,2.90
2019-01-14T07:40:52.736Z,3.00
2019-01-14T07:45:57.797Z,3.10
2019-01-14T07:51:02.800Z,3.20
2019-01-14T07:56:07.838Z,2.70
2019-01-14T08:01:12.842Z,2.50
2019-01-14T08:06:17.862Z,2.50
2019-01-14T08:11:22.868Z,2.90
2019-01-14T08:16:27.885Z,2.80
2019-01-14T08:21:33.017Z,2.60
2019-01-14T08:26:39.899Z,2.50
2019-01-14T08:31:44.887Z,2.40
2019-01-14T08:36:49.913Z,2.40
2019-01-14T08:41:59.708Z,2.50
2019-01-14T08:47:05.090Z,2.50
2019-01-14T08:52:10.136Z,2.60
2019-01-14T08:57:15.149Z,2.70
2019-01-14T09:02:20.162Z,2.70
2019-01-14T09:07:25.224Z,2.80
2019-01-14T09:12:30.261Z,3.00
2019-01-14T09:17:35.292Z,3.00
2019-01-14T09:22:40.320Z,3.20
2019-01-14T09:27:45.709Z,3.50
2019-01-14T09:32:50.749Z,3.50
2019-01-14T09:37:55.997Z,3.50
2019-01-14T09:43:01.009Z,3.50
2019-01-14T09:48:06.098Z,3.60
2019-01-14T09:53:11.113Z,3.60
2019-01-14T09:58:17.945Z,3.60
2019-01-14T10:03:22.997Z,3.80
2019-01-14T10:08:28.023Z,4.00
2019-01-14T10:13:33.036Z,4.30
2019-01-14T10:18:38.063Z,3.10
2019-01-14T10:23:43.202Z,2.60
2019-01-14T10:28:48.562Z,2.20
2019-01-14T10:33:53.560Z,2.10
2019-01-14T10:38:58.670Z,2.20
2019-01-14T10:44:03.741Z,2.40
2019-01-14T10:49:08.745Z,2.60
2019-01-14T10:54:13.749Z,3.00
2019-01-14T10:59:18.800Z,3.30
2019-01-14T11:04:23.830Z,3.60
2019-01-14T11:09:28.864Z,3.70
2019-01-14T11:14:34.011Z,3.70
2019-01-14T11:19:39.050Z,3.70
2019-01-14T11:24:50.874Z,3.60
2019-01-14T11:29:56.271Z,4.00
2019-01-14T11:35:01.396Z,4.10
2019-01-14T11:40:11.145Z,4.30
2019-01-14T11:45:16.353Z,4.30
2019-01-14T11:50:21.345Z,4.30
2019-01-14T11:55:26.368Z,4.40
2019-01-14T12:00:36.539Z,4.20
2019-01-14T12:05:38.348Z,3.80
2019-01-14T12:10:46.500Z,3.50
2019-01-14T12:15:51.672Z,3.40
2019-01-14T12:20:56.709Z,3.50
2019-01-14T12:26:01.796Z,3.90
2019-01-14T12:31:06.820Z,4.20
2019-01-14T12:36:11.836Z,4.40
2019-01-14T12:41:16.852Z,4.40
2019-01-14T12:46:21.860Z,4.30
2019-01-14T12:51:26.887Z,4.10
2019-01-14T12:56:31.913Z,4.00
2019-01-14T13:01:36.991Z,4.10
2019-01-14T13:06:41.985Z,3.90
2019-01-14T13:11:47.174Z,4.00
2019-01-14T13:16:52.320Z,4.30
2019-01-14T13:21:57.621Z,4.60
2019-01-14T13:27:03.130Z,4.60
2019-01-14T13:32:08.310Z,4.30
2019-01-14T13:37:13.249Z,4.10
2019-01-14T13:42:18.269Z,4.00
2019-01-14T13:47:23.352Z,4.00
2019-01-14T13:52:28.411Z,3.80
2019-01-14T13:57:33.441Z,3.50
2019-01-14T14:02:38.502Z,3.50
2019-01-14T14:07:43.513Z,3.30
2019-01-14T14:12:48.522Z,3.40
2019-01-14T14:17:53.578Z,3.50
2019-01-14T14:22:58.678Z,3.60
2019-01-14T14:28:04.322Z,4.00
2019-01-14T14:33:09.339Z,4.20
2019-01-14T14:38:14.537Z,4.30
2019-01-14T14:43:19.547Z,4.30
2019-01-14T14:48:24.550Z,4.00
2019-01-14T14:53:29.563Z,3.80
2019-01-14T14:58:34.552Z,3.60
2019-01-14T15:03:39.570Z,3.50
2019-01-14T15:08:44.700Z,3.50
2019-01-14T15:13:49.750Z,3.30
2019-01-14T15:18:55.205Z,3.20
2019-01-14T15:24:00.151Z,3.10
2019-01-14T15:29:05.723Z,3.10
2019-01-14T15:34:10.715Z,3.10
2019-01-14T15:39:16.414Z,3.20
2019-01-14T15:44:21.772Z,3.20
2019-01-14T15:49:26.773Z,3.10
2019-01-14T15:54:31.819Z,3.00
2019-01-14T15:59:36.827Z,3.00
2019-01-14T16:04:42.176Z,3.00
2019-01-14T16:09:47.175Z,3.00
2019-01-14T16:14:52.174Z,3.30
2019-01-14T16:19:57.161Z,3.50
2019-01-14T16:25:02.175Z,3.70
2019-01-14T16:30:10.915Z,3.60
2019-01-14T16:35:15.926Z,3.60
2019-01-14T16:40:20.932Z,3.50
2019-01-14T16:45:27.565Z,3.30
2019-01-14T16:50:32.628Z,3.10
2019-01-14T16:55:45.348Z,3.00
2019-01-14T17:00:50.484Z,3.00
2019-01-14T17:05:55.535Z,3.20
2019-01-14T17:11:00.548Z,3.40
2019-01-14T17:16:07.235Z,3.50
2019-01-14T17:21:12.207Z,3.50
2019-01-14T17:26:17.242Z,3.40
2019-01-14T17:31:22.237Z,3.30
2019-01-14T17:36:27.576Z,3.20
2019-01-14T17:41:32.980Z,3.10
2019-01-14T17:46:40.490Z,3.00
2019-01-14T17:51:45.508Z,3.00
2019-01-14T17:56:50.920Z,3.10
2019-01-14T18:01:55.937Z,3.30
2019-01-14T18:07:00.967Z,3.50
2019-01-14T18:12:05.971Z,3.70
2019-01-14T18:17:10.979Z,3.70
2019-01-14T18:22:15.987Z,3.70
2019-01-14T18:27:21.169Z,3.80
2019-01-14T18:32:26.236Z,3.80
2019-01-14T18:37:31.261Z,3.90
2019-01-14T18:42:36.546Z,3.90
2019-01-14T18:47:41.680Z,4.10
2019-01-14T18:52:46.808Z,4.10
2019-01-14T18:57:52.105Z,4.20
2019-01-14T19:02:57.136Z,4.20
2019-01-14T19:08:02.212Z,4.30
2019-01-14T19:13:07.222Z,4.30
2019-01-14T19:18:12.254Z,4.00
2019-01-14T19:23:17.264Z,3.90
2019-01-14T19:28:22.299Z,3.80
2019-01-14T19:33:27.314Z,3.90
2019-01-14T19:38:32.312Z,3.90
2019-01-14T19:43:37.314Z,4.10
2019-01-14T19:48:42.307Z,4.30
2019-01-14T19:53:47.389Z,4.30
2019-01-14T19:58:52.390Z,4.30
2019-01-14T20:03:57.423Z,4.30
2019-01-14T20:09:02.450Z,4.30
2019-01-14T20:14:07.449Z,4.30
2019-01-14T20:19:12.480Z,4.30
2019-01-14T20:24:17.480Z,4.30
2019-01-14T20:29:22.486Z,4.40
2019-01-14T20:34:27.506Z,4.40
2019-01-14T20:39:32.566Z,4.50
2019-01-14T20:44:37.551Z,4.50
2019-01-14T20:49:42.542Z,4.50
2019-01-14T20:54:47.539Z,4.60
2019-01-14T20:59:52.571Z,4.70
2019-01-14T21:04:57.582Z,4.70
2019-01-14T21:10:02.639Z,4.60
2019-01-14T21:15:08.539Z,4.50
2019-01-14T21:20:16.763Z,4.50
2019-01-14T21:25:21.772Z,4.50
2019-01-14T21:30:27.751Z,4.50
2019-01-14T21:35:32.743Z,4.50
2019-01-14T21:40:37.775Z,4.40
2019-01-14T21:45:42.863Z,4.50
2019-01-14T21:50:47.945Z,4.50
2019-01-14T21:55:52.967Z,4.40
2019-01-14T22:00:58.003Z,4.30
2019-01-14T22:06:03.108Z,4.20
2019-01-14T22:11:08.117Z,4.10
2019-01-14T22:16:13.155Z,3.90
2019-01-14T22:21:18.312Z,3.80
2019-01-14T22:26:23.317Z,3.50
2019-01-14T22:31:32.024Z,3.40
2019-01-14T22:36:40.321Z,3.10
2019-01-14T22:41:55.743Z,3.00
2019-01-14T22:47:01.715Z,2.80
2019-01-14T22:52:07.433Z,2.70
2019-01-14T22:57:12.432Z,2.60
2019-01-14T23:02:21.776Z,2.60
2019-01-14T23:07:26.909Z,2.50
2019-01-14T23:12:31.922Z,2.40
2019-01-14T23:17:36.967Z,2.20
2019-01-14T23:22:42.019Z,2.20
2019-01-14T23:27:47.084Z,2.10
2019-01-14T23:32:52.077Z,2.20
2019-01-14T23:37:57.207Z,2.20
2019-01-14T23:43:02.221Z,2.40
2019-01-14T23:48:07.240Z,2.40
2019-01-14T23:53:12.248Z,2.50
2019-01-14T23:58:17.251Z,2.50
